createdAt,value
2022-08-17T00:00:42.900Z,2.80
2022-08-17T00:03:33.270Z,2.90
2022-08-17T00:06:15.611Z,2.80
2022-08-17T00:08:46.643Z,3.00
2022-08-17T00:11:27.554Z,2.90
2022-08-17T00:14:13.888Z,3.00
2022-08-17T00:16:57.997Z,2.90
2022-08-17T00:19:28.452Z,3.40
2022-08-17T00:22:32.215Z,3.00
2022-08-17T00:24:51.849Z,3.80
2022-08-17T00:27:21.476Z,3.40
2022-08-17T00:29:50.831Z,3.50
2022-08-17T00:33:12.357Z,3.50
2022-08-17T00:35:14.459Z,3.10
2022-08-17T00:37:44.336Z,3.40
2022-08-17T00:40:17.212Z,2.90
2022-08-17T00:42:48.949Z,3.50
2022-08-17T00:45:21.612Z,3.10
2022-08-17T00:47:51.128Z,3.10
2022-08-17T00:50:21.518Z,3.20
2022-08-17T00:52:57.542Z,3.60
2022-08-17T00:55:30.050Z,3.40
2022-08-17T00:58:04.554Z,3.70
2022-08-17T01:00:45.384Z,3.30
2022-08-17T01:03:28.808Z,3.00
2022-08-17T01:06:03.178Z,2.70
2022-08-17T01:08:34.389Z,3.00
2022-08-17T01:11:06.302Z,3.00
2022-08-17T01:13:46.004Z,3.10
2022-08-17T01:16:33.010Z,2.90
2022-08-17T01:19:07.963Z,2.90
2022-08-17T01:22:07.830Z,2.80
2022-08-17T01:24:42.206Z,2.80
2022-08-17T01:27:18.538Z,3.10
2022-08-17T01:29:58.998Z,3.00
2022-08-17T01:32:31.470Z,2.90
2022-08-17T01:35:04.757Z,2.90
2022-08-17T01:37:40.058Z,2.90
2022-08-17T01:40:44.349Z,3.10
2022-08-17T01:43:29.395Z,2.80
2022-08-17T01:46:03.242Z,3.10
2022-08-17T01:48:40.682Z,3.80
2022-08-17T01:51:10.361Z,6.10
2022-08-17T01:53:47.457Z,7.20
2022-08-17T01:56:22.723Z,6.00
2022-08-17T01:58:52.099Z,4.30
2022-08-17T02:01:30.430Z,4.90
2022-08-17T02:04:01.769Z,4.80
2022-08-17T02:06:45.080Z,3.90
2022-08-17T02:09:17.260Z,3.80
2022-08-17T02:11:47.373Z,3.10
2022-08-17T02:14:17.085Z,3.80
2022-08-17T02:16:47.095Z,3.70
2022-08-17T02:19:19.043Z,5.00
2022-08-17T02:21:52.633Z,5.30
2022-08-17T02:24:58.990Z,3.80
2022-08-17T02:27:17.511Z,3.60
2022-08-17T02:29:46.874Z,3.20
2022-08-17T02:32:28.427Z,3.90
2022-08-17T02:35:02.033Z,4.20
2022-08-17T02:37:33.115Z,3.40
2022-08-17T02:40:03.004Z,4.00
2022-08-17T02:42:39.324Z,4.10
2022-08-17T02:45:14.894Z,3.60
2022-08-17T02:47:45.280Z,3.90
2022-08-17T02:50:19.232Z,3.70
2022-08-17T02:52:55.261Z,3.30
2022-08-17T02:55:42.239Z,3.40
2022-08-17T02:58:14.779Z,3.30
2022-08-17T03:01:08.992Z,3.60
2022-08-17T03:03:39.828Z,3.60
2022-08-17T03:06:09.854Z,4.10
2022-08-17T03:08:39.799Z,3.20
2022-08-17T03:11:09.327Z,3.40
2022-08-17T03:13:38.804Z,3.00
2022-08-17T03:16:09.662Z,3.00
2022-08-17T03:18:38.776Z,3.00
2022-08-17T03:21:10.189Z,3.20
2022-08-17T03:23:42.258Z,3.70
2022-08-17T03:26:15.555Z,3.90
2022-08-17T03:28:45.729Z,3.80
2022-08-17T03:31:15.318Z,3.00
2022-08-17T03:33:44.535Z,3.60
2022-08-17T03:36:13.865Z,4.00
2022-08-17T03:38:43.217Z,3.50
2022-08-17T03:41:15.102Z,3.60
2022-08-17T03:43:44.614Z,4.20
2022-08-17T03:46:34.977Z,4.90
2022-08-17T03:49:26.757Z,3.80
2022-08-17T03:52:16.764Z,3.70
2022-08-17T03:55:05.881Z,3.20
2022-08-17T03:57:35.252Z,3.70
2022-08-17T04:00:06.262Z,3.30
2022-08-17T04:02:36.439Z,3.90
2022-08-17T04:05:06.594Z,3.80
2022-08-17T04:07:36.155Z,3.70
2022-08-17T04:10:06.068Z,3.60
2022-08-17T04:12:56.639Z,3.40
2022-08-17T04:15:27.272Z,3.20
2022-08-17T04:17:57.376Z,3.50
2022-08-17T04:20:28.626Z,3.00
2022-08-17T04:23:08.032Z,3.60
2022-08-17T04:25:43.628Z,3.30
2022-08-17T04:28:16.219Z,3.40
2022-08-17T04:30:48.469Z,3.70
2022-08-17T04:33:25.459Z,3.50
2022-08-17T04:36:02.332Z,3.50
2022-08-17T04:38:36.783Z,3.40
2022-08-17T04:41:26.902Z,3.40
2022-08-17T04:43:59.411Z,3.60
2022-08-17T04:46:36.060Z,4.00
2022-08-17T04:49:10.935Z,3.40
2022-08-17T04:51:55.844Z,3.50
2022-08-17T04:54:27.106Z,3.70
2022-08-17T04:56:56.489Z,3.30
2022-08-17T04:59:25.774Z,4.00
2022-08-17T05:01:55.798Z,3.90
2022-08-17T05:04:34.122Z,3.60
2022-08-17T05:07:05.701Z,3.30
2022-08-17T05:09:35.011Z,3.50
2022-08-17T05:12:04.858Z,4.30
2022-08-17T05:14:34.567Z,3.80
2022-08-17T05:17:11.047Z,3.90
2022-08-17T05:19:41.081Z,3.90
2022-08-17T05:22:10.540Z,4.20
2022-08-17T05:24:43.765Z,3.50
2022-08-17T05:27:23.811Z,3.60
2022-08-17T05:29:53.335Z,3.70
2022-08-17T05:32:39.006Z,3.60
2022-08-17T05:35:10.658Z,3.90
2022-08-17T05:37:40.384Z,3.60
2022-08-17T05:40:11.539Z,3.80
2022-08-17T05:42:41.102Z,3.80
2022-08-17T05:45:12.368Z,3.10
2022-08-17T05:47:42.386Z,3.70
2022-08-17T05:50:59.957Z,3.90
2022-08-17T05:53:42.092Z,3.90
2022-08-17T05:56:57.596Z,3.40
2022-08-17T06:00:20.305Z,3.20
2022-08-17T06:03:08.855Z,3.70
2022-08-17T06:06:00.817Z,3.80
2022-08-17T06:08:40.714Z,3.60
2022-08-17T06:11:38.255Z,3.30
2022-08-17T06:14:41.834Z,3.50
2022-08-17T06:17:18.580Z,3.30
2022-08-17T06:20:01.395Z,3.20
2022-08-17T06:22:38.800Z,3.30
2022-08-17T06:25:20.563Z,3.20
2022-08-17T06:27:57.065Z,3.10
2022-08-17T06:30:41.411Z,3.60
2022-08-17T06:33:36.805Z,3.50
2022-08-17T06:36:52.385Z,2.90
2022-08-17T06:40:09.668Z,3.60
2022-08-17T06:43:06.534Z,3.00
2022-08-17T06:46:08.035Z,3.00
2022-08-17T06:48:44.097Z,2.90
2022-08-17T06:51:40.571Z,2.80
2022-08-17T06:54:21.449Z,2.70
2022-08-17T06:57:11.483Z,2.80
2022-08-17T06:59:58.909Z,2.80
2022-08-17T07:02:56.822Z,2.80
2022-08-17T07:06:00.366Z,2.80
2022-08-17T07:08:46.021Z,3.20
2022-08-17T07:11:36.466Z,3.40
2022-08-17T07:14:29.609Z,2.90
2022-08-17T07:17:03.898Z,3.00
2022-08-17T07:19:36.917Z,2.80
2022-08-17T07:22:18.182Z,3.00
2022-08-17T07:25:10.962Z,2.80
2022-08-17T07:27:52.460Z,2.90
2022-08-17T07:30:29.144Z,3.30
2022-08-17T07:33:21.138Z,3.00
2022-08-17T07:35:51.120Z,3.20
2022-08-17T07:38:31.538Z,3.20
2022-08-17T07:41:06.068Z,3.40
2022-08-17T07:43:44.312Z,2.60
2022-08-17T07:46:52.520Z,3.30
2022-08-17T07:49:43.384Z,2.50
2022-08-17T07:52:47.880Z,2.80
2022-08-17T07:55:37.064Z,2.90
2022-08-17T07:58:06.871Z,3.00
2022-08-17T08:00:38.337Z,2.70
2022-08-17T08:03:28.578Z,2.90
2022-08-17T08:06:04.203Z,2.70
2022-08-17T08:08:51.534Z,2.80
2022-08-17T08:11:44.154Z,2.50
2022-08-17T08:14:40.885Z,2.80
2022-08-17T08:17:11.212Z,2.50
2022-08-17T08:19:40.451Z,3.00
2022-08-17T08:22:29.906Z,3.10
2022-08-17T08:25:28.939Z,2.50
2022-08-17T08:28:37.816Z,3.00
2022-08-17T08:31:45.181Z,2.80
2022-08-17T08:35:01.490Z,2.70
2022-08-17T08:38:04.213Z,2.50
2022-08-17T08:40:47.812Z,2.80
2022-08-17T08:43:49.575Z,2.50
2022-08-17T08:46:49.806Z,2.90
2022-08-17T08:50:05.900Z,2.60
2022-08-17T08:53:02.628Z,2.60
2022-08-17T08:57:19.203Z,2.50
2022-08-17T08:59:57.988Z,2.10
2022-08-17T09:03:28.078Z,2.50
2022-08-17T09:06:59.006Z,2.40
2022-08-17T09:09:44.241Z,2.50
2022-08-17T09:12:49.753Z,2.60
2022-08-17T09:15:39.839Z,2.80
2022-08-17T09:19:00.179Z,2.70
2022-08-17T09:21:57.107Z,2.70
2022-08-17T09:25:05.226Z,2.60
2022-08-17T09:28:06.680Z,2.80
2022-08-17T09:30:54.202Z,2.80
2022-08-17T09:33:28.060Z,3.00
2022-08-17T09:36:14.169Z,2.80
2022-08-17T09:39:12.639Z,2.90
2022-08-17T09:42:15.432Z,3.30
2022-08-17T09:45:11.815Z,3.10
2022-08-17T09:48:04.236Z,3.50
2022-08-17T09:51:06.498Z,3.50
2022-08-17T09:53:40.045Z,3.70
2022-08-17T09:56:48.249Z,3.30
2022-08-17T09:59:56.774Z,2.90
2022-08-17T10:02:59.803Z,3.10
2022-08-17T10:05:38.834Z,3.10
2022-08-17T10:08:53.535Z,3.50
2022-08-17T10:12:13.512Z,3.20
2022-08-17T10:14:57.086Z,3.50
2022-08-17T10:18:08.709Z,3.70
2022-08-17T10:21:35.089Z,3.60
2022-08-17T10:24:39.951Z,3.50
2022-08-17T10:27:59.942Z,3.40
2022-08-17T10:30:34.883Z,3.90
2022-08-17T10:33:16.988Z,3.80
2022-08-17T10:36:28.218Z,3.10
2022-08-17T10:39:22.890Z,3.70
2022-08-17T10:41:59.822Z,3.80
2022-08-17T10:45:01.549Z,3.80
2022-08-17T10:48:22.882Z,3.60
2022-08-17T10:51:00.922Z,3.60
2022-08-17T10:53:42.420Z,3.70
2022-08-17T10:56:14.585Z,3.90
2022-08-17T10:59:09.428Z,3.50
2022-08-17T11:01:43.120Z,3.80
2022-08-17T11:04:25.151Z,3.90
2022-08-17T11:07:16.040Z,3.50
2022-08-17T11:10:25.237Z,3.70
2022-08-17T11:13:03.004Z,3.70
2022-08-17T11:16:16.935Z,3.60
2022-08-17T11:19:18.695Z,3.90
2022-08-17T11:21:53.883Z,3.40
2022-08-17T11:24:46.211Z,3.20
2022-08-17T11:27:35.726Z,4.00
2022-08-17T11:30:37.027Z,3.60
2022-08-17T11:33:31.861Z,3.50
2022-08-17T11:36:19.029Z,3.50
2022-08-17T11:39:02.460Z,3.60
2022-08-17T11:42:08.447Z,4.30
2022-08-17T11:44:54.228Z,3.90
2022-08-17T11:48:15.986Z,4.00
2022-08-17T11:51:28.933Z,3.40
2022-08-17T11:54:34.870Z,3.90
2022-08-17T11:57:33.362Z,4.00
2022-08-17T12:00:43.384Z,3.80
2022-08-17T12:03:28.140Z,3.80
2022-08-17T12:06:11.230Z,4.10
2022-08-17T12:08:49.888Z,3.60
2022-08-17T12:11:58.821Z,4.40
2022-08-17T12:15:08.135Z,4.50
2022-08-17T12:17:40.658Z,4.10
2022-08-17T12:20:30.300Z,3.60
2022-08-17T12:23:36.609Z,4.20
2022-08-17T12:26:23.769Z,4.10
2022-08-17T12:29:18.132Z,4.60
2022-08-17T12:32:03.461Z,4.00
2022-08-17T12:34:45.595Z,3.90
2022-08-17T12:37:27.333Z,4.10
2022-08-17T12:40:20.911Z,4.10
2022-08-17T12:43:09.006Z,4.40
2022-08-17T12:45:41.666Z,3.90
2022-08-17T12:48:23.547Z,5.00
2022-08-17T12:50:59.690Z,5.40
2022-08-17T12:53:32.879Z,4.50
2022-08-17T12:56:11.724Z,4.20
2022-08-17T12:58:56.842Z,4.20
2022-08-17T13:01:27.461Z,4.50
2022-08-17T13:04:02.133Z,4.70
2022-08-17T13:06:36.154Z,4.20
2022-08-17T13:09:35.715Z,4.60
2022-08-17T13:12:09.813Z,4.80
2022-08-17T13:14:38.972Z,5.30
2022-08-17T13:17:13.491Z,4.90
2022-08-17T13:19:52.184Z,4.90
2022-08-17T13:22:26.957Z,4.80
2022-08-17T13:25:10.437Z,5.30
2022-08-17T13:27:45.243Z,4.60
2022-08-17T13:30:16.034Z,4.60
2022-08-17T13:32:48.642Z,4.90
2022-08-17T13:35:41.407Z,4.50
2022-08-17T13:38:40.892Z,4.50
2022-08-17T13:41:39.954Z,5.40
2022-08-17T13:44:44.853Z,4.90
2022-08-17T13:47:21.392Z,5.00
2022-08-17T13:49:51.417Z,5.40
2022-08-17T13:52:53.160Z,5.00
2022-08-17T13:55:24.719Z,5.00
2022-08-17T13:58:03.599Z,4.90
2022-08-17T14:00:38.762Z,4.80
2022-08-17T14:03:08.179Z,4.70
2022-08-17T14:05:39.940Z,5.10
2022-08-17T14:08:09.207Z,5.30
2022-08-17T14:10:38.570Z,4.70
2022-08-17T14:13:09.299Z,5.40
2022-08-17T14:15:56.282Z,5.00
2022-08-17T14:18:35.527Z,5.60
2022-08-17T14:21:16.565Z,5.20
2022-08-17T14:23:49.008Z,4.90
2022-08-17T14:26:24.072Z,5.00
2022-08-17T14:28:56.271Z,5.00
2022-08-17T14:31:27.709Z,5.00
2022-08-17T14:33:57.122Z,5.30
2022-08-17T14:36:26.736Z,5.00
2022-08-17T14:38:56.032Z,5.50
2022-08-17T14:41:26.032Z,5.70
2022-08-17T14:43:55.461Z,6.10
2022-08-17T14:46:24.680Z,6.10
2022-08-17T14:48:57.333Z,5.90
2022-08-17T14:51:30.979Z,6.00
2022-08-17T14:54:00.445Z,5.20
2022-08-17T14:56:31.800Z,5.70
2022-08-17T14:59:08.105Z,6.10
2022-08-17T15:01:37.861Z,5.30
2022-08-17T15:04:07.412Z,5.10
2022-08-17T15:06:36.603Z,5.60
2022-08-17T15:09:06.132Z,6.10
2022-08-17T15:11:35.731Z,5.00
2022-08-17T15:14:04.917Z,5.20
2022-08-17T15:16:38.359Z,5.50
2022-08-17T15:19:09.601Z,5.00
2022-08-17T15:21:39.451Z,5.30
2022-08-17T15:24:10.284Z,4.90
2022-08-17T15:26:40.225Z,5.20
2022-08-17T15:29:11.471Z,5.50
2022-08-17T15:31:41.141Z,6.00
2022-08-17T15:34:10.349Z,6.00
2022-08-17T15:36:49.041Z,5.80
2022-08-17T15:39:19.686Z,5.90
2022-08-17T15:41:58.683Z,5.50
2022-08-17T15:44:32.626Z,4.90
2022-08-17T15:47:04.492Z,5.10
2022-08-17T15:49:34.448Z,5.40
2022-08-17T15:52:22.722Z,5.40
2022-08-17T15:55:01.527Z,4.80
2022-08-17T15:57:30.968Z,5.10
2022-08-17T16:00:00.235Z,4.90
2022-08-17T16:03:13.848Z,5.00
2022-08-17T16:05:28.222Z,4.80
2022-08-17T16:08:00.846Z,5.00
2022-08-17T16:10:35.401Z,4.60
2022-08-17T16:13:17.813Z,4.20
2022-08-17T16:15:57.046Z,5.00
2022-08-17T16:18:32.717Z,4.70
2022-08-17T16:21:25.862Z,4.50
2022-08-17T16:24:13.618Z,4.80
2022-08-17T16:26:44.773Z,4.90
2022-08-17T16:29:14.647Z,4.90
2022-08-17T16:31:44.611Z,5.10
2022-08-17T16:34:16.813Z,4.40
2022-08-17T16:36:56.161Z,4.80
2022-08-17T16:39:30.645Z,4.60
2022-08-17T16:42:00.166Z,4.80
2022-08-17T16:44:32.692Z,4.60
2022-08-17T16:47:02.524Z,4.70
2022-08-17T16:49:37.077Z,4.90
2022-08-17T16:52:11.497Z,4.80
2022-08-17T16:54:47.734Z,5.00
2022-08-17T16:57:18.536Z,4.70
2022-08-17T16:59:52.187Z,5.00
2022-08-17T17:02:38.912Z,4.80
2022-08-17T17:05:57.799Z,4.90
2022-08-17T17:08:44.107Z,4.40
2022-08-17T17:11:28.204Z,4.60
2022-08-17T17:14:09.926Z,4.80
2022-08-17T17:17:09.436Z,4.50
2022-08-17T17:19:58.605Z,4.60
2022-08-17T17:23:05.008Z,4.40
2022-08-17T17:25:48.922Z,4.30
2022-08-17T17:28:51.189Z,4.20
2022-08-17T17:31:26.563Z,4.80
2022-08-17T17:34:01.463Z,4.10
2022-08-17T17:36:43.220Z,4.40
2022-08-17T17:39:44.143Z,4.90
2022-08-17T17:42:20.461Z,4.40
2022-08-17T17:45:25.230Z,4.80
2022-08-17T17:47:55.083Z,4.70
2022-08-17T17:50:42.105Z,4.70
2022-08-17T17:53:41.519Z,5.70
2022-08-17T17:56:42.923Z,4.70
2022-08-17T17:59:59.276Z,5.10
2022-08-17T18:02:58.505Z,5.10
2022-08-17T18:06:13.679Z,4.90
2022-08-17T18:09:10.357Z,4.80
2022-08-17T18:12:12.616Z,5.50
2022-08-17T18:14:42.180Z,5.10
2022-08-17T18:17:11.545Z,5.10
2022-08-17T18:19:41.058Z,5.50
2022-08-17T18:22:22.520Z,4.90
2022-08-17T18:24:57.640Z,4.80
2022-08-17T18:27:40.675Z,4.70
2022-08-17T18:30:15.804Z,4.50
2022-08-17T18:32:50.651Z,4.70
2022-08-17T18:35:29.143Z,4.70
2022-08-17T18:38:43.108Z,5.20
2022-08-17T18:41:27.262Z,4.50
2022-08-17T18:44:06.452Z,4.80
2022-08-17T18:46:38.599Z,5.00
2022-08-17T18:49:29.590Z,5.20
2022-08-17T18:52:22.823Z,5.10
2022-08-17T18:55:32.319Z,5.30
2022-08-17T18:58:21.174Z,5.10
2022-08-17T19:00:51.724Z,5.20
2022-08-17T19:03:27.604Z,5.00
2022-08-17T19:06:35.356Z,5.00
2022-08-17T19:09:04.825Z,5.20
2022-08-17T19:11:38.650Z,5.40
2022-08-17T19:14:13.239Z,5.70
2022-08-17T19:17:42.119Z,5.10
2022-08-17T19:20:28.008Z,5.00
2022-08-17T19:23:16.039Z,4.70
2022-08-17T19:25:52.547Z,5.00
2022-08-17T19:28:57.864Z,4.70
2022-08-17T19:31:32.237Z,4.70
2022-08-17T19:34:03.762Z,4.60
2022-08-17T19:37:31.315Z,5.00
2022-08-17T19:40:48.788Z,5.00
2022-08-17T19:43:51.690Z,5.20
2022-08-17T19:46:37.303Z,5.00
2022-08-17T19:49:58.887Z,5.20
2022-08-17T19:52:56.354Z,5.00
2022-08-17T19:55:37.616Z,5.50
2022-08-17T19:58:33.147Z,4.90
2022-08-17T20:01:03.540Z,4.50
2022-08-17T20:04:10.890Z,4.70
2022-08-17T20:06:45.676Z,4.70
2022-08-17T20:09:56.827Z,4.50
2022-08-17T20:12:33.436Z,4.70
2022-08-17T20:15:16.664Z,4.60
2022-08-17T20:17:49.343Z,4.50
2022-08-17T20:21:07.666Z,4.40
2022-08-17T20:24:19.345Z,4.20
2022-08-17T20:27:31.561Z,4.30
2022-08-17T20:30:31.091Z,4.90
2022-08-17T20:33:03.846Z,4.40
2022-08-17T20:35:40.889Z,4.50
2022-08-17T20:38:44.922Z,4.20
2022-08-17T20:41:33.328Z,4.50
2022-08-17T20:44:08.408Z,4.30
2022-08-17T20:46:41.428Z,4.60
2022-08-17T20:49:17.496Z,4.20
2022-08-17T20:52:14.464Z,4.40
2022-08-17T20:54:58.231Z,4.40
2022-08-17T20:57:33.596Z,4.50
2022-08-17T21:00:31.537Z,4.70
2022-08-17T21:03:50.924Z,4.30
2022-08-17T21:06:25.782Z,4.60
2022-08-17T21:09:29.616Z,4.50
2022-08-17T21:12:07.969Z,4.20
2022-08-17T21:14:44.670Z,4.30
2022-08-17T21:17:50.314Z,5.10
2022-08-17T21:20:36.026Z,4.80
2022-08-17T21:23:46.745Z,4.90
2022-08-17T21:26:20.064Z,4.20
2022-08-17T21:29:29.512Z,4.20
2022-08-17T21:32:06.373Z,5.50
2022-08-17T21:34:45.674Z,4.70
2022-08-17T21:37:42.302Z,4.70
2022-08-17T21:40:24.747Z,4.90
2022-08-17T21:43:26.046Z,4.90
2022-08-17T21:46:14.324Z,4.70
2022-08-17T21:48:48.066Z,5.00
2022-08-17T21:51:27.246Z,5.00
2022-08-17T21:54:04.285Z,5.40
2022-08-17T21:56:43.254Z,5.60
2022-08-17T21:59:33.392Z,6.30
2022-08-17T22:02:21.122Z,5.20
2022-08-17T22:05:07.816Z,5.30
2022-08-17T22:07:51.720Z,4.80
2022-08-17T22:10:35.114Z,5.80
2022-08-17T22:13:29.596Z,6.10
2022-08-17T22:16:28.336Z,6.10
2022-08-17T22:19:00.587Z,5.90
2022-08-17T22:21:30.048Z,5.90
2022-08-17T22:24:25.730Z,6.60
2022-08-17T22:27:11.560Z,6.60
2022-08-17T22:29:59.203Z,5.90
2022-08-17T22:32:49.092Z,7.10
2022-08-17T22:35:37.217Z,6.80
2022-08-17T22:38:21.533Z,6.00
2022-08-17T22:41:15.231Z,6.50
2022-08-17T22:43:45.400Z,7.50
2022-08-17T22:46:16.375Z,7.50
2022-08-17T22:48:58.678Z,7.10
2022-08-17T22:51:33.824Z,6.70
2022-08-17T22:54:36.868Z,7.50
2022-08-17T22:57:31.509Z,8.00
2022-08-17T23:00:02.206Z,8.30
2022-08-17T23:02:35.745Z,8.10
2022-08-17T23:05:22.545Z,8.20
2022-08-17T23:07:54.337Z,8.10
2022-08-17T23:10:23.682Z,7.70
2022-08-17T23:12:54.293Z,8.10
2022-08-17T23:15:23.669Z,8.70
2022-08-17T23:17:53.819Z,8.90
2022-08-17T23:20:23.172Z,9.20
2022-08-17T23:22:53.154Z,9.70
2022-08-17T23:25:34.639Z,9.70
2022-08-17T23:28:07.004Z,8.70
2022-08-17T23:30:42.846Z,10.00
2022-08-17T23:33:22.475Z,12.10
2022-08-17T23:35:52.236Z,10.70
2022-08-17T23:38:23.492Z,10.90
2022-08-17T23:40:52.937Z,11.50
2022-08-17T23:43:25.737Z,10.40
2022-08-17T23:46:00.707Z,10.30
2022-08-17T23:48:36.856Z,11.80
2022-08-17T23:51:18.239Z,11.50
2022-08-17T23:53:55.320Z,12.00
2022-08-17T23:56:29.031Z,14.00
2022-08-17T23:58:59.649Z,12.10
